Orlando, Florida
Traffic Map
Current Weather Conditions
Orlando, Florida
Overcast
Overcast
24°
Feels Like: 24°
Wind Chill: 24° Ceiling: 1000
Heat Index: 24° Visibility: 10mi
Dew Point: 23° Wind: 5mph
Humidity: 94% Direction: 50° (NE)
Pressure: 29.92in Gusts: 0mph
Raw Report DataKORL 251953Z 05004KT 10SM OVC010 24/23 A2992
Traffic Incident Summary
Active as of:
Severity:
Category:
InformationThere was an issue retrieving the traffic information for this location. Please try a different location or try again shortly.
Advertisements
Track Severe Weather on mobile